CheckWX is a tool to help pilots better visualize weather data.  It is not intended as a substitute for an official pre-flight weather briefing.

20:58:45 UTC

KLUF TAF
Luke AFB Airport
Glendale, Arizona, USA
TAF KLUF 172000Z 1720/1902 21009KT 9999 FEW090 QNH2986INS TEMPO 1722/1802 22012G18KT BECMG 1804/1805 VRB06KT 9999 SKC QNH2982INS BECMG 1820/1821 22010G20KT 9999 SKC QNH2982INS TX37/1723Z TN24/1813Z

Sep-17@
20:00 UTC

Sep-17 @ 20:00 UTC

Sep-18@
04:00 UTC

Sep-18 @ 04:00 UTC

TAF KLUF 172000Z 1720/1902 21009KT 9999 FEW090 QNH2986INS
Wind
  • 210° at 9 KTS
Cloud Levels
  • Few at 9,000' AGL

Sep-17@
22:00 UTC

Sep-17 @ 22:00 UTC

Sep-18@
02:00 UTC

Sep-18 @ 02:00 UTC

TEMPO 1722/1802 22012G18KT

Temporary

Temporary Changes expected for less than half the time period

Wind
  • 220° at 12 KTS
  • {Gusting to 18 KTS

Sep-18@
04:00 UTC

Sep-18 @ 04:00 UTC

Sep-18@
20:00 UTC

Sep-18 @ 20:00 UTC

BECMG 1804/1805 VRB06KT 9999 SKC QNH2982INS

Becoming

Becoming Conditions expected by Wed, Sep 18, 2019 @ 05:00 UTC

Wind
  • Variable at 6 KTS
Cloud Levels
  • Clear skies

Sep-18@
20:00 UTC

Sep-18 @ 20:00 UTC

Sep-19@
02:00 UTC

Sep-19 @ 02:00 UTC

BECMG 1820/1821 22010G20KT 9999 SKC QNH2982INS TX37/1723Z TN24/1813Z

Becoming

Becoming Conditions expected by Wed, Sep 18, 2019 @ 21:00 UTC

Wind
  • 220° at 10 KTS
  • {Gusting to 20 KTS
Cloud Levels
  • Clear skies